Time;durP1;ratioP1;P1;durP2;ratioP2;P2;SDS_P1;SDS_P2;PMS_P1;PMS_P2;Temp;Humidity;BMP_temperature;BMP_pressure;BME280_temperature;BME280_humidity;BME280_pressure;Samples;Min_cycle;Max_cycle;Signal;HPM_P1;HPM_P2
2023/07/01 00:01:14;;;;;;;;;;;;;;;-140.72;100.00;52567.41;4993791;28;20292;-69
2023/07/01 00:03:39;;;;;;;;;;;;;;;-140.72;100.00;52577.53;4992202;28;20370;-68
2023/07/01 00:06:04;;;;;;;;;;;;;;;-140.72;100.00;52597.84;4994278;28;20396;-68
2023/07/01 00:08:29;;;;;;;;;;;;;;;-140.72;100.00;52545.06;4992326;28;20020;-69
2023/07/01 00:11:03;;;;;;;;;;;;;;;-140.72;100.00;52569.44;4998869;28;19937;-69
2023/07/01 00:13:29;;;;;;;;;;;;;;;-140.72;100.00;52520.72;4980563;28;20098;-68
2023/07/01 00:15:55;;;;;;;;;;;;;;;-140.72;100.00;52565.38;4991621;28;19940;-69
2023/07/01 00:18:20;;;;;;;;;;;;;;;-140.72;100.00;52563.34;4977891;28;19922;-68
2023/07/01 00:20:46;;;;;;;;;;;;;;;-140.72;100.00;52569.44;4992882;28;20294;-68
2023/07/01 00:23:11;;;;;;;;;;;;;;;-140.72;100.00;52563.34;4978633;28;20269;-69
2023/07/01 00:25:36;;;;;;;;;;;;;;;-140.72;100.00;52612.03;4964765;28;19945;-69
2023/07/01 00:28:01;;;;;;;;;;;;;;;-140.72;100.00;52591.75;4982751;28;20125;-68
2023/07/01 00:30:27;;;;;;;;;;;;;;;-140.72;100.00;52557.25;4988263;28;19952;-68
2023/07/01 00:32:52;;;;;;;;;;;;;;;-140.72;100.00;52601.91;4982338;28;19918;-68
2023/07/01 00:35:17;;;;;;;;;;;;;;;-140.72;100.00;52603.94;4985337;28;19924;-68
2023/07/01 00:37:42;;;;;;;;;;;;;;;-140.72;100.00;52624.22;4978838;28;19971;-69
2023/07/01 00:40:09;;;;;;;;;;;;;;;-140.72;100.00;52597.84;5004365;28;20240;-68
2023/07/01 00:42:34;;;;;;;;;;;;;;;-140.72;100.00;52577.53;4998486;28;19932;-69
2023/07/01 00:44:59;;;;;;;;;;;;;;;-140.72;100.00;52593.78;4979113;28;19922;-69
2023/07/01 00:47:24;;;;;;;;;;;;;;;-140.72;100.00;52555.22;4983220;28;19918;-68
2023/07/01 00:49:50;;;;;;;;;;;;;;;-140.72;100.00;52561.31;4977973;28;19922;-69
2023/07/01 00:52:16;;;;;;;;;;;;;;;-140.72;100.00;52555.22;4995671;28;19985;-68
2023/07/01 00:54:41;;;;;;;;;;;;;;;-140.72;100.00;52575.50;4985618;28;19925;-68
2023/07/01 00:57:07;;;;;;;;;;;;;;;-140.72;100.00;52585.66;4993221;28;21137;-68
2023/07/01 00:59:32;;;;;;;;;;;;;;;-140.72;100.00;52585.66;4987033;28;20004;-68
2023/07/01 01:01:59;;;;;;;;;;;;;;;-140.72;100.00;52561.31;4996224;28;19918;-68
2023/07/01 01:04:29;;;;;;;;;;;;;;;-140.72;100.00;52614.06;4992098;28;19922;-69
2023/07/01 01:06:57;;;;;;;;;;;;;;;-140.72;100.00;52571.47;4987862;28;19956;-68
2023/07/01 01:09:26;;;;;;;;;;;;;;;-140.72;100.00;52565.38;4982631;28;19922;-68
2023/07/01 01:11:53;;;;;;;;;;;;;;;-140.72;100.00;52571.47;4978011;28;19949;-69
2023/07/01 01:14:19;;;;;;;;;;;;;;;-140.72;100.00;52587.69;4985184;28;19929;-69
2023/07/01 01:16:46;;;;;;;;;;;;;;;-140.72;100.00;52577.53;4990809;28;20495;-69
2023/07/01 01:19:30;;;;;;;;;;;;;;;-140.72;100.00;52575.50;4988607;28;20009;-69
2023/07/01 01:22:17;;;;;;;;;;;;;;;-140.72;100.00;52605.94;4977746;28;19928;-69
2023/07/01 01:24:44;;;;;;;;;;;;;;;-140.72;100.00;52612.03;4985618;28;19922;-69
2023/07/01 01:27:11;;;;;;;;;;;;;;;-140.72;100.00;52583.63;4990188;28;19925;-69
2023/07/01 01:29:36;;;;;;;;;;;;;;;-140.72;100.00;52599.88;4994648;28;20233;-69
2023/07/01 01:32:02;;;;;;;;;;;;;;;-140.72;100.00;52581.59;4987107;28;19918;-69
2023/07/01 01:34:27;;;;;;;;;;;;;;;-140.72;100.00;52620.16;4976437;28;19976;-69
2023/07/01 01:36:54;;;;;;;;;;;;;;;-140.72;100.00;52569.44;4990057;28;20166;-69
2023/07/01 01:39:26;;;;;;;;;;;;;;;-140.72;100.00;52593.78;4981352;28;19926;-69
2023/07/01 01:41:57;;;;;;;;;;;;;;;-140.72;100.00;52557.25;4981417;28;20351;-69
2023/07/01 01:44:36;;;;;;;;;;;;;;;-140.72;100.00;52591.75;4981486;28;19961;-69
2023/07/01 01:47:02;;;;;;;;;;;;;;;-140.72;100.00;52577.53;4982208;28;20008;-69
2023/07/01 01:49:28;;;;;;;;;;;;;;;-140.72;100.00;52603.94;4994153;28;19928;-69
2023/07/01 01:51:54;;;;;;;;;;;;;;;-140.72;100.00;52585.66;4986626;28;20384;-69
2023/07/01 01:54:19;;;;;;;;;;;;;;;-140.72;100.00;52593.78;4993225;28;19926;-69
2023/07/01 01:56:44;;;;;;;;;;;;;;;-140.72;100.00;52626.25;4981635;28;20399;-69
2023/07/01 01:59:10;;;;;;;;;;;;;;;-140.72;100.00;52603.94;4993666;28;20012;-69
2023/07/01 02:01:36;;;;;;;;;;;;;;;-140.72;100.00;52575.50;4994745;28;19941;-69
2023/07/01 02:04:01;;;;;;;;;;;;;;;-140.72;100.00;52601.91;4982772;28;19918;-69
2023/07/01 02:06:26;;;;;;;;;;;;;;;-140.72;100.00;52614.06;4993440;28;19926;-70
2023/07/01 02:08:51;;;;;;;;;;;;;;;-140.72;100.00;52597.84;4981075;28;19921;-69
2023/07/01 02:11:17;;;;;;;;;;;;;;;-140.72;100.00;52597.84;4986671;28;19929;-69
2023/07/01 02:13:42;;;;;;;;;;;;;;;-140.72;100.00;52618.13;4993974;28;20300;-69
2023/07/01 02:16:07;;;;;;;;;;;;;;;-140.72;100.00;52622.19;4993494;28;19921;-69
2023/07/01 02:18:33;;;;;;;;;;;;;;;-140.72;100.00;52603.94;4988727;28;19918;-69
2023/07/01 02:20:58;;;;;;;;;;;;;;;-140.72;100.00;52644.50;4987428;28;20046;-68
2023/07/01 02:23:23;;;;;;;;;;;;;;;-140.72;100.00;52612.03;4989636;28;20036;-68
2023/07/01 02:25:48;;;;;;;;;;;;;;;-140.72;100.00;52614.06;4990006;28;19950;-69
2023/07/01 02:28:14;;;;;;;;;;;;;;;-140.72;100.00;52614.06;4995954;28;20422;-68
2023/07/01 02:30:39;;;;;;;;;;;;;;;-140.72;100.00;52597.84;4993542;28;19930;-69
2023/07/01 02:33:04;;;;;;;;;;;;;;;-140.72;100.00;52614.06;4993175;28;20430;-69
2023/07/01 02:35:30;;;;;;;;;;;;;;;-140.72;100.00;52607.97;5001944;28;19921;-69
2023/07/01 02:37:55;;;;;;;;;;;;;;;-140.72;100.00;52585.66;4996021;28;19929;-68
2023/07/01 02:40:22;;;;;;;;;;;;;;;-140.72;100.00;52581.59;4976115;28;19918;-68
2023/07/01 02:42:47;;;;;;;;;;;;;;;-140.72;100.00;52618.13;4984415;28;19957;-69
2023/07/01 02:45:13;;;;;;;;;;;;;;;-140.72;100.00;52555.22;4984127;28;19984;-69
2023/07/01 02:47:38;;;;;;;;;;;;;;;-140.72;100.00;52610.00;4992382;28;19924;-69
2023/07/01 02:50:10;;;;;;;;;;;;;;;-140.72;100.00;52551.16;4993864;28;20320;-69
2023/07/01 02:52:35;;;;;;;;;;;;;;;-140.72;100.00;52595.81;4994102;28;19918;-68
2023/07/01 02:55:00;;;;;;;;;;;;;;;-140.72;100.00;52575.50;4993776;28;19929;-69
2023/07/01 02:57:27;;;;;;;;;;;;;;;-140.72;100.00;52601.91;4993622;28;19963;-69
2023/07/01 02:59:52;;;;;;;;;;;;;;;-140.72;100.00;52577.53;4992202;28;19919;-69
2023/07/01 03:02:18;;;;;;;;;;;;;;;-140.72;100.00;52581.59;4993390;28;19949;-69
2023/07/01 03:04:43;;;;;;;;;;;;;;;-140.72;100.00;52616.09;4986785;28;19921;-69
2023/07/01 03:07:08;;;;;;;;;;;;;;;-140.72;100.00;52607.97;4991295;28;19932;-69
2023/07/01 03:09:34;;;;;;;;;;;;;;;-140.72;100.00;52614.06;4992968;28;19929;-68
2023/07/01 03:11:59;;;;;;;;;;;;;;;-140.72;100.00;52605.94;4992518;28;19925;-69
2023/07/01 03:14:24;;;;;;;;;;;;;;;-140.72;100.00;52577.53;4993779;28;19918;-68
2023/07/01 03:16:52;;;;;;;;;;;;;;;-140.72;100.00;52614.06;4990972;28;19922;-68
2023/07/01 03:19:17;;;;;;;;;;;;;;;-140.72;100.00;52577.53;4986287;28;19922;-68
2023/07/01 03:21:42;;;;;;;;;;;;;;;-140.72;100.00;52607.97;4990110;28;19921;-68
2023/07/01 03:24:07;;;;;;;;;;;;;;;-140.72;100.00;52561.31;4983753;28;19925;-68
2023/07/01 03:26:33;;;;;;;;;;;;;;;-140.72;100.00;52587.69;4973234;28;19944;-69
2023/07/01 03:28:58;;;;;;;;;;;;;;;-140.72;100.00;52614.06;4984167;28;19918;-68
2023/07/01 03:31:23;;;;;;;;;;;;;;;-140.72;100.00;52573.50;4986147;28;19922;-68
2023/07/01 03:33:49;;;;;;;;;;;;;;;-140.72;100.00;52622.19;4981581;28;19926;-69
2023/07/01 03:36:15;;;;;;;;;;;;;;;-140.72;100.00;52589.72;4989932;28;20361;-68
2023/07/01 03:38:40;;;;;;;;;;;;;;;-140.72;100.00;52618.13;4990185;28;19922;-69
2023/07/01 03:41:08;;;;;;;;;;;;;;;-140.72;100.00;52626.25;4983934;28;20324;-69
2023/07/01 03:43:34;;;;;;;;;;;;;;;-140.72;100.00;52597.84;4975660;28;19918;-69
2023/07/01 03:45:59;;;;;;;;;;;;;;;-140.72;100.00;52583.63;4988847;28;19926;-69
2023/07/01 03:48:24;;;;;;;;;;;;;;;-140.72;100.00;52614.06;4979543;28;19922;-69
2023/07/01 03:50:50;;;;;;;;;;;;;;;-140.72;100.00;52626.25;4973703;28;20311;-69
2023/07/01 03:53:15;;;;;;;;;;;;;;;-140.72;100.00;52597.84;4993122;28;20323;-69
2023/07/01 03:55:40;;;;;;;;;;;;;;;-140.72;100.00;52551.16;4989979;28;19922;-69
2023/07/01 03:58:07;;;;;;;;;;;;;;;-140.72;100.00;52626.25;4991993;28;19930;-69
2023/07/01 04:00:32;;;;;;;;;;;;;;;-140.72;100.00;52601.91;4989123;28;19957;-68
2023/07/01 04:03:05;;;;;;;;;;;;;;;-140.72;100.00;52585.66;4974737;28;20320;-68
2023/07/01 04:05:34;;;;;;;;;;;;;;;-140.72;100.00;52597.84;4992555;28;19957;-69
2023/07/01 04:07:59;;;;;;;;;;;;;;;-140.72;100.00;52593.78;4991435;28;20084;-68
2023/07/01 04:10:25;;;;;;;;;;;;;;;-140.72;100.00;52634.38;4992498;28;19922;-69
2023/07/01 04:12:50;;;;;;;;;;;;;;;-140.72;100.00;52593.78;4992752;28;19922;-69
2023/07/01 04:15:15;;;;;;;;;;;;;;;-140.72;100.00;52614.06;4994532;28;20217;-69
2023/07/01 04:17:42;;;;;;;;;;;;;;;-140.72;100.00;52591.75;4989599;28;19922;-68
2023/07/01 04:20:09;;;;;;;;;;;;;;;-140.72;100.00;52591.75;4972680;28;19922;-68
2023/07/01 04:22:35;;;;;;;;;;;;;;;-140.72;100.00;52638.41;4992793;28;19921;-68
2023/07/01 04:25:00;;;;;;;;;;;;;;;-140.72;100.00;52587.69;4986338;28;19929;-68
2023/07/01 04:27:25;;;;;;;;;;;;;;;-140.72;100.00;52605.94;4972999;28;19930;-69
2023/07/01 04:29:51;;;;;;;;;;;;;;;-140.72;100.00;52607.97;4991712;28;20048;-69
2023/07/01 04:32:18;;;;;;;;;;;;;;;-140.72;100.00;52541.03;4991785;28;19918;-69
2023/07/01 04:34:44;;;;;;;;;;;;;;;-140.72;100.00;52593.78;4989123;28;19928;-69
2023/07/01 04:37:09;;;;;;;;;;;;;;;-140.72;100.00;52605.94;4991312;28;19929;-69
2023/07/01 04:39:34;;;;;;;;;;;;;;;-140.72;100.00;52585.66;4991080;28;19918;-68
2023/07/01 04:42:00;;;;;;;;;;;;;;;-140.72;100.00;52614.06;4991019;28;19929;-69
2023/07/01 04:44:25;;;;;;;;;;;;;;;-140.72;100.00;52577.53;4988996;28;20383;-69
2023/07/01 04:46:51;;;;;;;;;;;;;;;-140.72;100.00;52567.41;4992769;28;19925;-70
2023/07/01 04:49:17;;;;;;;;;;;;;;;-140.72;100.00;52581.59;4984726;28;19922;-70
2023/07/01 04:51:42;;;;;;;;;;;;;;;-140.72;100.00;52601.91;4968685;28;20365;-69
2023/07/01 04:54:07;;;;;;;;;;;;;;;-140.72;100.00;52589.72;4993951;28;19988;-69
2023/07/01 04:56:32;;;;;;;;;;;;;;;-140.72;100.00;52573.50;4990501;28;19940;-69
2023/07/01 04:58:58;;;;;;;;;;;;;;;-140.72;100.00;52569.44;4992200;28;20275;-69
2023/07/01 05:01:23;;;;;;;;;;;;;;;-140.72;100.00;52559.28;4993929;28;19952;-69
2023/07/01 05:03:48;;;;;;;;;;;;;;;-140.72;100.00;52571.47;4981278;28;19934;-69
2023/07/01 05:06:13;;;;;;;;;;;;;;;-140.72;100.00;52583.63;4971635;28;20426;-69
2023/07/01 05:08:39;;;;;;;;;;;;;;;-140.72;100.00;52583.63;4973883;28;19926;-69
2023/07/01 05:11:04;;;;;;;;;;;;;;;-140.72;100.00;52597.84;4994009;28;20039;-69
2023/07/01 05:13:29;;;;;;;;;;;;;;;-140.72;100.00;52530.88;4992632;28;19929;-69
2023/07/01 05:15:55;;;;;;;;;;;;;;;-140.72;100.00;52593.78;4981976;28;19922;-69
2023/07/01 05:18:20;;;;;;;;;;;;;;;-140.72;100.00;52585.66;4988089;28;20288;-70
2023/07/01 05:20:45;;;;;;;;;;;;;;;-140.72;100.00;52601.91;4982077;28;19921;-69
2023/07/01 05:23:11;;;;;;;;;;;;;;;-140.72;100.00;52573.50;4975495;28;19938;-69
2023/07/01 05:25:36;;;;;;;;;;;;;;;-140.72;100.00;52614.06;4982600;28;19922;-70
2023/07/01 05:28:01;;;;;;;;;;;;;;;-140.72;100.00;52595.81;4989199;28;19918;-69
2023/07/01 05:30:26;;;;;;;;;;;;;;;-140.72;100.00;52581.59;4977797;28;20261;-69
2023/07/01 05:32:53;;;;;;;;;;;;;;;-140.72;100.00;52565.38;4984763;28;20575;-70
2023/07/01 05:35:19;;;;;;;;;;;;;;;-140.72;100.00;52589.72;4989712;28;19923;-70
2023/07/01 05:37:44;;;;;;;;;;;;;;;-140.72;100.00;52557.25;4986609;28;19925;-70
2023/07/01 05:40:11;;;;;;;;;;;;;;;-140.72;100.00;52591.75;4973663;28;19968;-70
2023/07/01 05:42:37;;;;;;;;;;;;;;;-140.72;100.00;52593.78;4994493;28;19937;-75
2023/07/01 05:45:13;;;;;;;;;;;;;;;-140.72;100.00;52595.81;4993498;28;19926;-73
2023/07/01 05:47:39;;;;;;;;;;;;;;;-140.72;100.00;52573.50;4994786;28;20300;-69
2023/07/01 05:50:04;;;;;;;;;;;;;;;-140.72;100.00;52561.31;4984448;28;19918;-70
2023/07/01 05:52:29;;;;;;;;;;;;;;;-140.72;100.00;52597.84;4977214;28;19941;-70
2023/07/01 05:54:55;;;;;;;;;;;;;;;-140.72;100.00;52581.59;4985839;28;19918;-69
2023/07/01 05:57:20;;;;;;;;;;;;;;;-140.72;100.00;52577.53;4993214;28;20386;-69
2023/07/01 05:59:45;;;;;;;;;;;;;;;-140.72;100.00;52589.72;4990019;28;19926;-70
2023/07/01 06:02:10;;;;;;;;;;;;;;;-140.72;100.00;52585.66;5000551;28;19961;-70
2023/07/01 06:04:36;;;;;;;;;;;;;;;-140.72;100.00;52605.94;4986695;28;19929;-70
2023/07/01 06:07:01;;;;;;;;;;;;;;;-140.72;100.00;52620.16;4978434;28;19926;-70
2023/07/01 06:09:26;;;;;;;;;;;;;;;-140.72;100.00;52583.63;4989245;28;20017;-69
2023/07/01 06:11:52;;;;;;;;;;;;;;;-140.72;100.00;52587.69;4980128;28;19918;-70
2023/07/01 06:14:18;;;;;;;;;;;;;;;-140.72;100.00;52593.78;4979598;28;20505;-69
2023/07/01 06:16:43;;;;;;;;;;;;;;;-140.72;100.00;52585.66;4988501;28;19918;-70
2023/07/01 06:19:08;;;;;;;;;;;;;;;-140.72;100.00;52569.44;4980194;28;19977;-70
2023/07/01 06:21:33;;;;;;;;;;;;;;;-140.72;100.00;52616.09;4985414;28;19949;-70
2023/07/01 06:23:59;;;;;;;;;;;;;;;-140.72;100.00;52630.31;4965961;28;19936;-70
2023/07/01 06:26:24;;;;;;;;;;;;;;;-140.72;100.00;52644.50;4990448;28;19922;-70
2023/07/01 06:28:49;;;;;;;;;;;;;;;-140.72;100.00;52581.59;4983007;28;19921;-70
2023/07/01 06:31:14;;;;;;;;;;;;;;;-140.72;100.00;52553.19;4993193;28;19922;-70
2023/07/01 06:33:40;;;;;;;;;;;;;;;-140.72;100.00;52585.66;4981894;28;19925;-70
2023/07/01 06:36:06;;;;;;;;;;;;;;;-140.72;100.00;52563.34;4978716;28;20064;-70
2023/07/01 06:38:31;;;;;;;;;;;;;;;-140.72;100.00;52607.97;4993433;28;19941;-70
2023/07/01 06:40:56;;;;;;;;;;;;;;;-140.72;100.00;52573.50;4982899;28;20376;-70
2023/07/01 06:43:21;;;;;;;;;;;;;;;-140.72;100.00;52599.88;4982878;28;20348;-70
2023/07/01 06:45:47;;;;;;;;;;;;;;;-140.72;100.00;52583.63;4980589;28;19977;-70
2023/07/01 06:48:12;;;;;;;;;;;;;;;-140.72;100.00;52593.78;4992409;28;19940;-68
2023/07/01 06:50:37;;;;;;;;;;;;;;;-140.72;100.00;52587.69;4980716;28;20411;-69
2023/07/01 06:53:03;;;;;;;;;;;;;;;-140.72;100.00;52595.81;4987848;28;19929;-69
2023/07/01 06:55:28;;;;;;;;;;;;;;;-140.72;100.00;52571.47;4997261;28;19957;-69
2023/07/01 06:57:54;;;;;;;;;;;;;;;-140.72;100.00;52597.84;4974754;28;20278;-68
2023/07/01 07:00:19;;;;;;;;;;;;;;;-140.72;100.00;52567.41;4979542;28;20233;-69
2023/07/01 07:02:44;;;;;;;;;;;;;;;-140.72;100.00;52557.25;4969014;28;19957;-70
2023/07/01 07:05:09;;;;;;;;;;;;;;;-140.72;100.00;52583.63;4986798;28;19939;-69
2023/07/01 07:07:34;;;;;;;;;;;;;;;-140.72;100.00;52581.59;4984323;28;20013;-69
2023/07/01 07:10:00;;;;;;;;;;;;;;;-140.72;100.00;52577.53;4977980;28;20000;-69
2023/07/01 07:12:25;;;;;;;;;;;;;;;-140.72;100.00;52583.63;4992171;28;20008;-72
2023/07/01 07:14:51;;;;;;;;;;;;;;;-140.72;100.00;52559.28;4980700;28;20363;-73
2023/07/01 07:17:20;;;;;;;;;;;;;;;-140.72;100.00;52561.31;4989710;28;19937;-73
2023/07/01 07:20:04;;;;;;;;;;;;;;;-140.72;100.00;52581.59;4974597;28;20033;-72
2023/07/01 07:22:29;;;;;;;;;;;;;;;-140.72;100.00;52616.09;4983471;28;20014;-73
2023/07/01 07:24:55;;;;;;;;;;;;;;;-140.72;100.00;52581.59;4978296;28;19981;-72
2023/07/01 07:27:20;;;;;;;;;;;;;;;-140.72;100.00;52612.03;4983633;28;19922;-73
2023/07/01 07:29:46;;;;;;;;;;;;;;;-140.72;100.00;52563.34;4985374;28;20028;-72
2023/07/01 07:32:11;;;;;;;;;;;;;;;-140.72;100.00;52563.34;4985149;28;19921;-73
2023/07/01 07:34:38;;;;;;;;;;;;;;;-140.72;100.00;52571.47;4972558;28;19953;-73
2023/07/01 07:37:04;;;;;;;;;;;;;;;-140.72;100.00;52561.31;4992245;28;19976;-73
2023/07/01 07:39:29;;;;;;;;;;;;;;;-140.72;100.00;52577.53;4983649;28;20012;-71
2023/07/01 07:41:54;;;;;;;;;;;;;;;-140.72;100.00;52543.03;4983462;28;20273;-71
2023/07/01 07:44:20;;;;;;;;;;;;;;;-140.72;100.00;52567.41;4979163;28;19930;-72
2023/07/01 07:46:45;;;;;;;;;;;;;;;-140.72;100.00;52553.19;4996146;28;19960;-73
2023/07/01 07:49:10;;;;;;;;;;;;;;;-140.72;100.00;52561.31;4999842;28;20332;-72
2023/07/01 07:51:35;;;;;;;;;;;;;;;-140.72;100.00;52585.66;4986517;28;19944;-72
2023/07/01 07:54:01;;;;;;;;;;;;;;;-140.72;100.00;52524.78;4966869;28;19922;-72
2023/07/01 07:56:26;;;;;;;;;;;;;;;-140.72;100.00;52514.63;4976919;28;19972;-71
2023/07/01 07:58:51;;;;;;;;;;;;;;;-140.72;100.00;52557.25;4983325;28;19933;-73
2023/07/01 08:01:16;;;;;;;;;;;;;;;-140.72;100.00;52571.47;4965462;28;19928;-75
2023/07/01 08:03:42;;;;;;;;;;;;;;;-140.72;100.00;52559.28;4993950;28;19922;-75
2023/07/01 08:06:07;;;;;;;;;;;;;;;-140.72;100.00;52528.84;4975338;28;20409;-71
2023/07/01 08:08:33;;;;;;;;;;;;;;;-140.72;100.00;52583.63;4992665;28;19922;-71
2023/07/01 08:10:59;;;;;;;;;;;;;;;-140.72;100.00;52545.06;4992422;28;19922;-74
2023/07/01 08:13:24;;;;;;;;;;;;;;;-140.72;100.00;52545.06;4993051;28;19953;-77
2023/07/01 08:15:49;;;;;;;;;;;;;;;-140.72;100.00;52516.66;4979572;28;19922;-75
2023/07/01 08:18:16;;;;;;;;;;;;;;;-140.72;100.00;52530.88;4991860;28;20424;-75
2023/07/01 08:20:41;;;;;;;;;;;;;;;-140.72;100.00;52549.13;4962571;28;20887;-75
2023/07/01 08:23:06;;;;;;;;;;;;;;;-140.72;100.00;52532.91;4989853;28;19922;-76
2023/07/01 08:25:31;;;;;;;;;;;;;;;-140.72;100.00;52541.03;4974560;28;19925;-76
2023/07/01 08:27:58;;;;;;;;;;;;;;;-140.72;100.00;52575.50;4977248;28;20293;-76
2023/07/01 08:30:23;;;;;;;;;;;;;;;-140.72;100.00;52553.19;4978985;28;19919;-75
2023/07/01 08:32:48;;;;;;;;;;;;;;;-140.72;100.00;52549.13;4977080;28;19984;-76
2023/07/01 08:35:14;;;;;;;;;;;;;;;-140.72;100.00;52553.19;4968718;28;19961;-76
2023/07/01 08:37:39;;;;;;;;;;;;;;;-140.72;100.00;52561.31;4977071;28;19929;-75
2023/07/01 08:40:06;;;;;;;;;;;;;;;-140.72;100.00;52536.97;4977964;28;19929;-75
2023/07/01 08:42:34;;;;;;;;;;;;;;;-140.72;100.00;52530.88;4976915;28;19980;-75
2023/07/01 08:45:00;;;;;;;;;;;;;;;-140.72;100.00;52530.88;4994734;28;20300;-75
2023/07/01 08:47:25;;;;;;;;;;;;;;;-140.72;100.00;52573.50;4975799;28;20029;-74
2023/07/01 08:49:53;;;;;;;;;;;;;;;-140.72;100.00;52559.28;4989544;28;19976;-74
2023/07/01 08:52:19;;;;;;;;;;;;;;;-140.72;100.00;52543.03;4992572;28;20430;-75
2023/07/01 08:54:45;;;;;;;;;;;;;;;-140.72;100.00;52524.78;4976867;28;20248;-77
2023/07/01 08:57:10;;;;;;;;;;;;;;;-140.72;100.00;52543.03;4978500;28;20009;-78
2023/07/01 08:59:36;;;;;;;;;;;;;;;-140.72;100.00;52522.75;4988551;28;19929;-80
2023/07/01 09:02:01;;;;;;;;;;;;;;;-140.72;100.00;52559.28;4984494;28;19997;-80
2023/07/01 09:04:27;;;;;;;;;;;;;;;-140.72;100.00;52516.66;4982207;28;19921;-78
2023/07/01 09:06:53;;;;;;;;;;;;;;;-140.72;100.00;52532.91;4980927;28;19972;-79
2023/07/01 09:09:18;;;;;;;;;;;;;;;-140.72;100.00;52557.25;4983081;28;19969;-79
2023/07/01 09:11:43;;;;;;;;;;;;;;;-140.72;100.00;52508.56;4980620;28;20076;-81
2023/07/01 09:14:09;;;;;;;;;;;;;;;-140.72;100.00;52565.38;4980826;28;20359;-80
2023/07/01 09:16:37;;;;;;;;;;;;;;;-140.72;100.00;52520.72;4983642;28;20338;-80
2023/07/01 09:19:06;;;;;;;;;;;;;;;-140.72;100.00;52541.03;4977883;28;19922;-79
2023/07/01 09:21:35;;;;;;;;;;;;;;;-140.72;100.00;52543.03;4998765;28;20452;-78
2023/07/01 09:24:00;;;;;;;;;;;;;;;-140.72;100.00;52518.69;4989264;28;19922;-78
2023/07/01 09:26:28;;;;;;;;;;;;;;;-140.72;100.00;52583.63;4982977;28;20471;-78
2023/07/01 09:28:54;;;;;;;;;;;;;;;-140.72;100.00;52553.19;4975999;28;19918;-78
2023/07/01 09:31:19;;;;;;;;;;;;;;;-140.72;100.00;52553.19;4990041;28;19922;-75
2023/07/01 09:34:05;;;;;;;;;;;;;;;-140.72;100.00;52551.16;5002257;28;19940;-79
2023/07/01 09:36:31;;;;;;;;;;;;;;;-140.72;100.00;52536.97;4985095;28;19928;-80
2023/07/01 09:38:56;;;;;;;;;;;;;;;-140.72;100.00;52553.19;4980428;28;19957;-77
2023/07/01 09:41:26;;;;;;;;;;;;;;;-140.72;100.00;52545.06;4979527;28;20338;-74
2023/07/01 09:43:53;;;;;;;;;;;;;;;-140.72;100.00;52516.66;4982591;28;19921;-70
2023/07/01 09:46:18;;;;;;;;;;;;;;;-140.72;100.00;52553.19;4990033;28;19945;-71
2023/07/01 09:48:53;;;;;;;;;;;;;;;-140.72;100.00;52553.19;5000472;28;19929;-71
2023/07/01 09:51:20;;;;;;;;;;;;;;;-140.72;100.00;52561.31;4994281;28;19921;-71
2023/07/01 09:53:46;;;;;;;;;;;;;;;-140.72;100.00;52532.91;4994229;28;19928;-68
2023/07/01 09:56:13;;;;;;;;;;;;;;;-140.72;100.00;52563.34;4994808;28;19922;-68
2023/07/01 09:58:38;;;;;;;;;;;;;;;-140.72;100.00;52563.34;4993368;28;19958;-68
2023/07/01 10:01:03;;;;;;;;;;;;;;;-140.72;100.00;52563.34;4988586;28;20052;-68
2023/07/01 10:03:29;;;;;;;;;;;;;;;-140.72;100.00;52536.97;4984944;28;19969;-68
2023/07/01 10:05:55;;;;;;;;;;;;;;;-140.72;100.00;52510.59;4994474;28;20513;-68
2023/07/01 10:08:21;;;;;;;;;;;;;;;-140.72;100.00;52565.38;4968049;28;20127;-68
2023/07/01 10:11:01;;;;;;;;;;;;;;;-140.72;100.00;52524.78;4993378;28;19961;-69
2023/07/01 10:13:28;;;;;;;;;;;;;;;-140.72;100.00;52553.19;4979941;28;19933;-69
2023/07/01 10:15:53;;;;;;;;;;;;;;;-140.72;100.00;52571.47;4989563;28;19973;-69
2023/07/01 10:18:23;;;;;;;;;;;;;;;-140.72;100.00;52545.06;4974551;28;19926;-68
2023/07/01 10:20:50;;;;;;;;;;;;;;;-140.72;100.00;52541.03;4992701;28;20000;-69
2023/07/01 10:23:15;;;;;;;;;;;;;;;-140.72;100.00;52516.66;4988127;28;19922;-68
2023/07/01 10:25:41;;;;;;;;;;;;;;;-140.72;100.00;52553.19;4999674;28;20012;-69
2023/07/01 10:28:10;;;;;;;;;;;;;;;-140.72;100.00;52581.59;4989493;28;19922;-69
2023/07/01 10:30:47;;;;;;;;;;;;;;;-140.72;100.00;52510.59;4987820;28;20016;-68
2023/07/01 10:33:27;;;;;;;;;;;;;;;-140.72;100.00;52569.44;4988316;28;19928;-68
2023/07/01 10:36:00;;;;;;;;;;;;;;;-140.72;100.00;52530.88;4975320;28;20335;-69
2023/07/01 10:38:25;;;;;;;;;;;;;;;-140.72;100.00;52565.38;4989598;28;20033;-69
2023/07/01 10:40:50;;;;;;;;;;;;;;;-140.72;100.00;52593.78;4994543;28;19961;-69
2023/07/01 10:43:32;;;;;;;;;;;;;;;-140.72;100.00;52561.31;4993605;28;20336;-69
2023/07/01 10:46:13;;;;;;;;;;;;;;;-140.72;100.00;52549.13;4988525;28;19964;-69
2023/07/01 10:48:39;;;;;;;;;;;;;;;-140.72;100.00;52536.97;4988178;28;19921;-69
2023/07/01 10:51:08;;;;;;;;;;;;;;;-140.72;100.00;52530.88;4976237;28;19918;-68
2023/07/01 10:53:55;;;;;;;;;;;;;;;-140.72;100.00;52587.69;4993350;28;19972;-68
2023/07/01 10:56:21;;;;;;;;;;;;;;;-140.72;100.00;52573.50;4993675;28;19992;-69
2023/07/01 10:59:06;;;;;;;;;;;;;;;-140.72;100.00;52585.66;4990621;28;19926;-70
2023/07/01 11:01:41;;;;;;;;;;;;;;;-140.72;100.00;52593.78;4992330;28;20317;-70
2023/07/01 11:04:06;;;;;;;;;;;;;;;-140.72;100.00;52577.53;4984859;28;19922;-69
2023/07/01 11:06:44;;;;;;;;;;;;;;;-140.72;100.00;52561.31;4992929;28;20358;-69
2023/07/01 11:09:09;;;;;;;;;;;;;;;-140.72;100.00;52536.97;4986966;28;20017;-69
2023/07/01 11:11:35;;;;;;;;;;;;;;;-140.72;100.00;52549.13;4993713;28;20384;-69
2023/07/01 11:14:08;;;;;;;;;;;;;;;-140.72;100.00;52541.03;4992986;28;20372;-68
2023/07/01 11:16:34;;;;;;;;;;;;;;;-140.72;100.00;52561.31;4997170;28;20407;-68
2023/07/01 11:19:03;;;;;;;;;;;;;;;-140.72;100.00;52561.31;4971188;28;19972;-68
2023/07/01 11:21:29;;;;;;;;;;;;;;;-140.72;100.00;52577.53;4979490;28;19948;-67
2023/07/01 11:23:54;;;;;;;;;;;;;;;-140.72;100.00;52561.31;4973492;28;20360;-69
2023/07/01 11:26:20;;;;;;;;;;;;;;;-140.72;100.00;52545.06;4991007;28;19937;-68
2023/07/01 11:28:46;;;;;;;;;;;;;;;-140.72;100.00;52557.25;4993303;28;20016;-68
2023/07/01 11:31:15;;;;;;;;;;;;;;;-140.72;100.00;52492.31;4990391;28;19960;-68
2023/07/01 11:33:53;;;;;;;;;;;;;;;-140.72;100.00;52522.75;4987288;28;19926;-69
2023/07/01 11:36:21;;;;;;;;;;;;;;;-140.72;100.00;52514.63;4988362;28;19930;-68
2023/07/01 11:38:47;;;;;;;;;;;;;;;-140.72;100.00;52492.31;4992250;28;19922;-69
2023/07/01 11:41:14;;;;;;;;;;;;;;;-140.72;100.00;52512.59;4988735;28;19922;-69
2023/07/01 11:43:39;;;;;;;;;;;;;;;-140.72;100.00;52528.84;4991090;28;20412;-69
2023/07/01 11:46:04;;;;;;;;;;;;;;;-140.72;100.00;52488.25;4985429;28;19953;-69
2023/07/01 11:48:33;;;;;;;;;;;;;;;-140.72;100.00;52478.13;4992311;28;20352;-71
2023/07/01 11:50:58;;;;;;;;;;;;;;;-140.72;100.00;52506.53;4986653;28;20399;-70
2023/07/01 11:53:25;;;;;;;;;;;;;;;-140.72;100.00;52512.59;4981797;28;19918;-71
2023/07/01 11:55:50;;;;;;;;;;;;;;;-140.72;100.00;52506.53;4975311;28;19957;-71
2023/07/01 11:58:37;;;;;;;;;;;;;;;-140.72;100.00;52516.66;4977329;28;20391;-71
2023/07/01 12:01:02;;;;;;;;;;;;;;;-140.72;100.00;52484.19;4978476;28;19992;-71
2023/07/01 12:03:31;;;;;;;;;;;;;;;-140.72;100.00;52490.28;4974210;28;20349;-72
2023/07/01 12:05:57;;;;;;;;;;;;;;;-140.72;100.00;52451.72;4981656;28;19928;-71
2023/07/01 12:08:22;;;;;;;;;;;;;;;-140.72;100.00;52455.78;4979600;28;19917;-72
2023/07/01 12:10:48;;;;;;;;;;;;;;;-140.72;100.00;52478.13;4992986;28;20275;-73
2023/07/01 12:13:33;;;;;;;;;;;;;;;-140.72;100.00;52470.00;4974983;28;20048;-73
2023/07/01 12:15:59;;;;;;;;;;;;;;;-140.72;100.00;52417.25;4973070;28;19922;-74